»·PEaware :: N2Q KOLM-KPDX

N2Q :: KOLM-KPDX

FLIGHT INFORMATION

Flight Status: Arrived
Operator: Privately registered:
United States
More flights under this callsign
Pilot: Anonymous 13363 (13363)
Aircraft: Unknown
(KODI)
More flights by this aircraft type
Origin: KOLM Olympia
United States
Destination: KPDX Portland Intl
United States
More flights between these airports :: More routes between these airports
Route: +ALDER HELNS HELNS5
File this flight plan on PilotEdge
Remarks:
Altitude:
(Current/Filed)
20,000ft
Speed:
(Current/Filed)
260kts
Departed: 21-Dec-17 06:15 PM
Arrived: 21-Dec-17 07:21 PM
Distance/Time
Traveled:
84nm/1:05
Distance/Time
To Go:
Arrived

Flight Plot

Page will automatically refresh every two minutes.

Flight plan parsing failed; only flown route is shown


Map Options




Map Legend


Flown Route
Filed Route
Departure Airport
Arrival Airport
Navaid (VOR, NDB)
Fix

Horizontal Profiles

Position Reports

Time Latitude Longitude Heading Altitude Ground
Speed
21-Dec-17 18:20 46.974809 -122.921102 6 2405ft 107kts
21-Dec-17 18:21 46.988709 -122.900662 157 1094ft 110kts
21-Dec-17 18:22 46.966786 -122.904795 112 213ft 7kts
21-Dec-17 18:23 46.968022 -122.901053 11 212ft 16kts
21-Dec-17 18:24 46.971616 -122.897823 48 213ft 18kts
21-Dec-17 18:25 46.973747 -122.898002 322 213ft 12kts
21-Dec-17 18:26 46.975956 -122.901282 275 212ft 2kts
21-Dec-17 18:27 46.975960 -122.901335 274 212ft 0kts
21-Dec-17 18:28 46.975960 -122.901336 277 212ft 0kts
21-Dec-17 18:29 46.975961 -122.901347 276 212ft 0kts
21-Dec-17 18:30 46.975961 -122.901347 276 212ft 0kts
21-Dec-17 18:31 46.975961 -122.901347 276 212ft 0kts
21-Dec-17 18:32 46.975961 -122.901347 276 212ft 0kts
21-Dec-17 18:33 46.975961 -122.901345 276 212ft 0kts
21-Dec-17 18:34 46.975961 -122.901345 276 212ft 0kts
21-Dec-17 18:35 46.975961 -122.901345 276 212ft 0kts
21-Dec-17 18:36 46.975961 -122.901345 276 212ft 0kts
21-Dec-17 18:37 46.975961 -122.901345 276 212ft 0kts
21-Dec-17 18:38 46.963340 -122.904968 160 718ft 102kts
21-Dec-17 18:39 46.960974 -122.866120 75 1991ft 130kts
21-Dec-17 18:40 46.962277 -122.820269 117 3119ft 103kts
21-Dec-17 18:41 46.948901 -122.781845 116 4647ft 101kts
21-Dec-17 18:42 46.936080 -122.744462 115 6635ft 113kts
21-Dec-17 18:43 46.921802 -122.702834 115 8649ft 116kts
21-Dec-17 18:44 46.908657 -122.663905 128 10624ft 107kts
21-Dec-17 18:45 46.895621 -122.626484 132 12440ft 122kts
21-Dec-17 18:46 46.878943 -122.579520 122 14186ft 155kts
21-Dec-17 18:47 46.858207 -122.520080 109 15932ft 171kts
21-Dec-17 18:48 46.836692 -122.457501 109 17650ft 173kts
21-Dec-17 18:49 46.803316 -122.410722 183 19095ft 190kts
21-Dec-17 18:50 46.744853 -122.399845 182 19069ft 213kts
21-Dec-17 18:51 46.685019 -122.388802 182 19075ft 222kts
21-Dec-17 18:52 46.624046 -122.377439 182 19074ft 222kts
21-Dec-17 18:53 46.562815 -122.366083 181 19075ft 222kts
21-Dec-17 18:54 46.501769 -122.354764 181 19076ft 222kts
21-Dec-17 18:55 46.440791 -122.343530 182 18884ft 229kts
21-Dec-17 18:56 46.379236 -122.332179 181 17950ft 230kts
21-Dec-17 18:57 46.316225 -122.320572 181 16988ft 227kts
21-Dec-17 18:58 46.254558 -122.313121 210 16015ft 208kts
21-Dec-17 18:59 46.201853 -122.340602 212 15083ft 192kts
21-Dec-17 19:00 46.153224 -122.367602 212 14176ft 185kts
21-Dec-17 19:01 46.105974 -122.393860 212 13273ft 175kts
21-Dec-17 19:02 46.062999 -122.417643 212 12215ft 161kts
21-Dec-17 19:03 46.021401 -122.440769 211 11082ft 161kts
21-Dec-17 19:04 45.979775 -122.463816 209 9941ft 161kts
21-Dec-17 19:05 45.938561 -122.486573 208 8792ft 155kts
21-Dec-17 19:06 45.900205 -122.507889 202 7629ft 144kts
21-Dec-17 19:07 45.864201 -122.527631 201 6495ft 138kts
21-Dec-17 19:08 45.831449 -122.545639 199 5392ft 131kts
21-Dec-17 19:09 45.797975 -122.564020 199 4249ft 130kts
21-Dec-17 19:10 45.764594 -122.582335 200 3987ft 128kts
21-Dec-17 19:11 45.760651 -122.622950 295 3988ft 127kts
21-Dec-17 19:12 45.775830 -122.667781 295 3987ft 127kts
21-Dec-17 19:13 45.792042 -122.715681 295 3565ft 137kts
21-Dec-17 19:14 45.807553 -122.765036 294 3009ft 137kts
21-Dec-17 19:15 45.794976 -122.807494 215 2965ft 124kts
21-Dec-17 19:16 45.767397 -122.836478 215 2962ft 126kts
21-Dec-17 19:17 45.738615 -122.866636 214 2957ft 129kts
21-Dec-17 19:18 45.712445 -122.858023 146 2970ft 129kts
21-Dec-17 19:19 45.684531 -122.826744 116 2959ft 127kts
21-Dec-17 19:20 45.667522 -122.783076 118 2935ft 122kts
21-Dec-17 19:21 45.654387 -122.748933 117 2433ft 85kts
21-Dec-17 19:22 45.642229 -122.717576 118 1983ft 94kts
21-Dec-17 19:23 45.630145 -122.686465 118 1494ft 96kts
21-Dec-17 19:24 45.618321 -122.655970 117 1005ft 83kts
21-Dec-17 19:25 45.607573 -122.628565 117 600ft 81kts
21-Dec-17 19:26 45.596711 -122.600605 117 143ft 80kts
21-Dec-17 19:27 45.589792 -122.582865 120 34ft 22kts
21-Dec-17 19:28 45.588595 -122.582163 200 34ft 5kts
21-Dec-17 19:29 45.587050 -122.582487 209 34ft 1kts
21-Dec-17 19:30 45.586940 -122.582579 210 34ft 0kts
21-Dec-17 19:31 45.586940 -122.582579 210 34ft 0kts
21-Dec-17 19:32 45.586940 -122.582579 210 34ft 0kts
21-Dec-17 19:33 45.586940 -122.582579 210 34ft 0kts
21-Dec-17 19:34 45.586940 -122.582579 210 34ft 0kts
21-Dec-17 19:35 45.586940 -122.582579 210 34ft 0kts
21-Dec-17 19:36 45.586940 -122.582579 210 34ft 0kts
21-Dec-17 19:37 45.586940 -122.582579 210 34ft 0kts

Navigation Log

Ident Type
Flight plan parsing failed, navigation log unavailable